Time;durP1;ratioP1;P1;durP2;ratioP2;P2;SDS_P1;SDS_P2;PMS_P1;PMS_P2;Temp;Humidity;BMP_temperature;BMP_pressure;BME280_temperature;BME280_humidity;BME280_pressure;Samples;Min_cycle;Max_cycle;Signal;HPM_P1;HPM_P2
2022/01/16 00:05:33;;;;;;;;;2.00;2.00;;;;;1.70;82.04;101015.16;6183978;23;11513;-73
2022/01/16 00:08:28;;;;;;;;;2.00;2.00;;;;;1.71;82.48;101023.06;6183736;23;11427;-73
2022/01/16 00:11:25;;;;;;;;;1.75;1.75;;;;;1.59;83.05;101022.44;6164144;23;11463;-73
2022/01/16 00:14:20;;;;;;;;;7.00;7.00;;;;;1.66;82.92;101010.22;6184020;23;11557;-73
2022/01/16 00:17:16;;;;;;;;;2.50;2.50;;;;;1.68;82.46;101020.84;6183978;23;11602;-73
2022/01/16 00:20:12;;;;;;;;;3.00;3.00;;;;;1.72;83.24;101013.00;6184166;23;11534;-73
2022/01/16 00:23:10;;;;;;;;;4.00;4.00;;;;;1.64;83.17;101004.22;6183601;23;11433;-73
2022/01/16 00:26:05;;;;;;;;;2.00;2.00;;;;;1.70;82.84;101020.63;6183857;23;11554;-73
2022/01/16 00:29:02;;;;;;;;;1.25;1.25;;;;;1.65;83.12;101022.22;6184160;23;11446;-73
2022/01/16 00:31:58;;;;;;;;;1.50;1.50;;;;;1.70;82.74;101039.69;6183654;23;11484;-72
2022/01/16 00:34:54;;;;;;;;;0.75;0.75;;;;;1.59;82.97;101017.81;6183769;23;11978;-73
2022/01/16 00:37:52;;;;;;;;;1.00;1.00;;;;;1.42;82.96;101027.25;6164076;23;11439;-73
2022/01/16 00:40:19;;;;;;;;;2.25;2.25;;;;;1.41;83.44;101025.59;6193924;23;11438;-73
2022/01/16 00:43:15;;;;;;;;;1.00;1.00;;;;;1.49;83.37;101033.28;6164110;23;12204;-73
2022/01/16 00:46:11;;;;;;;;;4.50;2.50;;;;;1.51;83.15;101039.28;6183766;23;12299;-72
2022/01/16 00:49:06;;;;;;;;;0.00;0.00;;;;;1.46;83.35;101053.72;6183582;23;11468;-73
2022/01/16 00:51:34;;;;;;;;;4.25;4.25;;;;;1.46;83.77;101050.16;6194019;23;11451;-72
2022/01/16 00:54:29;;;;;;;;;1.00;1.00;;;;;1.42;83.32;101033.50;6164155;23;11538;-72
2022/01/16 00:57:25;;;;;;;;;1.50;1.50;;;;;1.47;83.17;101028.09;6183555;23;11577;-72
2022/01/16 01:00:21;;;;;;;;;1.00;1.00;;;;;1.50;82.42;101029.47;6183654;23;11488;-72
2022/01/16 01:03:17;;;;;;;;;3.00;3.00;;;;;1.64;82.46;101038.84;6183487;23;11487;-72
2022/01/16 01:06:12;;;;;;;;;1.75;1.75;;;;;1.66;81.45;101045.66;6184746;23;12158;-72
2022/01/16 01:08:40;;;;;;;;;4.00;4.00;;;;;1.60;81.38;101065.78;6184915;23;11545;-73
2022/01/16 01:11:38;;;;;;;;;4.50;4.50;;;;;1.73;80.90;101080.06;6183738;23;11528;-73
2022/01/16 01:14:42;;;;;;;;;6.50;6.50;;;;;1.76;80.62;101088.53;6164027;23;11483;-73
2022/01/16 01:17:46;;;;;;;;;1.75;1.75;;;;;1.53;81.10;101105.25;6163615;23;12173;-72
2022/01/16 01:20:46;;;;;;;;;2.00;2.00;;;;;1.61;80.47;101162.03;6185303;23;11476;-72
2022/01/16 01:23:42;;;;;;;;;1.50;1.25;;;;;1.61;81.28;101205.66;6185290;23;11497;-72
2022/01/16 01:26:47;;;;;;;;;1.75;1.75;;;;;1.52;80.41;101220.84;6185466;23;11449;-72
2022/01/16 01:29:48;;;;;;;;;2.00;2.00;;;;;1.62;79.87;101261.88;6185554;23;11459;-74
2022/01/16 01:32:46;;;;;;;;;3.00;3.00;;;;;1.69;79.49;101090.69;6185455;23;11465;-73
2022/01/16 01:35:42;;;;;;;;;3.00;3.00;;;;;1.57;80.42;101000.91;6185560;23;11550;-74
2022/01/16 01:38:38;;;;;;;;;4.00;4.00;;;;;1.58;79.87;101028.97;6185156;23;11561;-73
2022/01/16 01:41:33;;;;;;;;;2.00;2.00;;;;;1.49;80.09;100997.84;6185313;23;11463;-73
2022/01/16 01:51:03;;;;;;;;;5.75;4.50;;;;;1.59;80.67;101115.94;6185017;23;11484;-73
2022/01/16 01:54:00;;;;;;;;;4.00;4.00;;;;;1.67;80.36;101115.47;6185633;23;11447;-72
2022/01/16 01:56:58;;;;;;;;;5.00;5.00;;;;;1.57;80.47;101071.78;6184972;23;12205;-72
2022/01/16 01:59:53;;;;;;;;;10.50;10.50;;;;;1.65;79.98;101109.47;6165205;23;11463;-73
2022/01/16 02:05:58;;;;;;;;;12.50;12.50;;;;;1.65;80.48;101103.19;6184761;23;11549;-72
2022/01/16 02:09:00;;;;;;;;;14.00;14.00;;;;;1.82;80.03;101083.94;6184788;23;12146;-72
2022/01/16 02:11:56;;;;;;;;;14.50;11.75;;;;;1.79;79.33;101115.28;6184472;23;11561;-72
2022/01/16 02:15:01;;;;;;;;;7.00;7.00;;;;;1.72;79.13;101133.78;6184910;23;11519;-72
2022/01/16 02:28:03;;;;;;;;;2.00;2.00;;;;;1.68;77.79;101151.75;6184670;23;11522;-73
2022/01/16 02:31:19;;;;;;;;;5.00;4.25;;;;;1.66;78.24;101156.63;6184347;23;11452;-73
2022/01/16 02:37:28;;;;;;;;;3.00;3.00;;;;;1.69;78.09;101167.03;6184479;23;11467;-73
2022/01/16 02:40:26;;;;;;;;;1.00;1.00;;;;;1.70;77.79;101178.78;6184726;23;11497;-73
2022/01/16 02:43:29;;;;;;;;;2.00;2.00;;;;;1.78;78.21;101146.38;6184688;23;11442;-73
2022/01/16 02:49:21;;;;;;;;;1.50;1.50;;;;;1.88;77.00;101171.00;6184580;23;11436;-73
2022/01/16 02:52:19;;;;;;;;;2.00;2.00;;;;;1.69;77.31;101186.13;6184437;23;11803;-72
2022/01/16 02:55:16;;;;;;;;;2.00;2.00;;;;;1.83;76.86;101195.50;6184396;23;11546;-72
2022/01/16 02:58:12;;;;;;;;;1.75;1.75;;;;;1.79;76.96;101197.13;6184504;23;11434;-73
2022/01/16 03:01:08;;;;;;;;;3.00;3.00;;;;;1.65;76.40;101194.00;6183963;23;11455;-72
2022/01/16 03:04:04;;;;;;;;;2.00;2.00;;;;;1.74;76.06;101207.97;6184493;23;11564;-72
2022/01/16 03:07:01;;;;;;;;;6.50;6.50;;;;;1.68;75.43;101211.72;6164751;23;12210;-72
2022/01/16 03:10:29;;;;;;;;;4.00;4.00;;;;;1.60;75.65;101218.47;6184538;23;12186;-73
2022/01/16 03:13:29;;;;;;;;;4.00;4.00;;;;;1.57;74.79;101227.19;6164665;23;11556;-72
2022/01/16 03:16:25;;;;;;;;;8.25;8.25;;;;;1.70;73.36;101222.41;6184407;23;11473;-71
2022/01/16 03:22:34;;;;;;;;;14.50;13.00;;;;;1.78;72.75;101217.28;6183833;23;11475;-72
2022/01/16 03:25:30;;;;;;;;;8.50;8.50;;;;;1.74;72.95;101226.25;6183648;23;11570;-71
2022/01/16 03:28:25;;;;;;;;;3.00;3.00;;;;;1.73;72.08;101233.59;6184023;23;11511;-71
2022/01/16 03:31:21;;;;;;;;;7.25;7.25;;;;;1.73;72.81;101233.59;6184051;23;11501;-71
2022/01/16 03:34:17;;;;;;;;;6.50;6.50;;;;;1.76;72.47;101233.06;6184093;23;11466;-72
2022/01/16 03:37:13;;;;;;;;;3.00;3.00;;;;;1.77;72.68;101231.19;6183783;23;11476;-71
2022/01/16 03:40:10;;;;;;;;;2.00;2.00;;;;;1.70;72.66;101242.31;6183816;23;11464;-72
2022/01/16 03:43:13;;;;;;;;;1.00;1.00;;;;;1.79;72.68;101246.22;6183435;23;11460;-72
2022/01/16 03:46:09;;;;;;;;;4.00;4.00;;;;;1.94;73.04;101246.34;6183900;23;11428;-72
2022/01/16 03:49:21;;;;;;;;;4.00;4.00;;;;;1.81;73.38;101256.84;6184084;23;11607;-72
2022/01/16 03:52:16;;;;;;;;;2.00;2.00;;;;;1.95;73.34;101260.81;6183941;23;11584;-73
2022/01/16 03:55:12;;;;;;;;;0.25;0.25;;;;;2.06;72.41;101264.44;6184069;23;11595;-72
2022/01/16 03:58:08;;;;;;;;;4.75;4.00;;;;;1.86;73.90;101270.53;6164363;23;11438;-72
2022/01/16 04:01:04;;;;;;;;;4.75;4.75;;;;;1.84;75.40;101262.63;6183658;23;11468;-71
2022/01/16 04:04:00;;;;;;;;;9.00;9.00;;;;;1.94;76.17;101262.72;6183903;23;11519;-72
2022/01/16 04:06:56;;;;;;;;;10.00;7.50;;;;;1.83;76.87;101273.78;6183644;23;11499;-72
2022/01/16 04:09:51;;;;;;;;;5.00;4.00;;;;;1.89;77.36;101275.47;6183735;23;11507;-72
2022/01/16 04:12:47;;;;;;;;;2.00;2.00;;;;;1.87;77.45;101273.00;6183530;23;11475;-72
2022/01/16 04:15:43;;;;;;;;;2.50;2.50;;;;;1.79;78.11;101276.22;6183591;23;12289;-71
2022/01/16 04:18:38;;;;;;;;;3.50;3.50;;;;;1.76;78.40;101284.06;6184721;23;11465;-71
2022/01/16 04:21:35;;;;;;;;;1.75;1.75;;;;;1.66;79.98;101284.78;6183396;23;12140;-71
2022/01/16 04:24:32;;;;;;;;;3.00;3.00;;;;;1.72;80.17;101283.78;6180938;23;11486;-72
2022/01/16 04:27:28;;;;;;;;;1.00;1.00;;;;;1.74;79.36;101288.97;6184341;23;11468;-72
2022/01/16 04:30:23;;;;;;;;;2.00;2.00;;;;;1.65;80.04;101292.16;6184732;23;11509;-72
2022/01/16 04:33:20;;;;;;;;;2.50;2.50;;;;;1.71;80.26;101290.31;6185612;23;11490;-71
2022/01/16 04:36:16;;;;;;;;;2.00;2.00;;;;;1.77;79.73;101293.91;6184476;23;11661;-72
2022/01/16 04:39:15;;;;;;;;;1.00;1.00;;;;;1.72;79.45;101300.13;6184382;23;11594;-72
2022/01/16 04:45:26;;;;;;;;;1.00;1.00;;;;;1.84;78.13;101302.69;6184657;23;11586;-71
2022/01/16 04:48:21;;;;;;;;;1.00;1.00;;;;;1.84;78.11;101314.44;6184136;23;11482;-72
2022/01/16 04:51:19;;;;;;;;;1.00;1.00;;;;;1.85;78.51;101312.53;6200938;23;11571;-73
2022/01/16 04:54:14;;;;;;;;;0.50;0.50;;;;;1.84;78.09;101325.38;6184494;23;11487;-73
2022/01/16 04:57:13;;;;;;;;;1.25;0.75;;;;;1.79;78.82;101325.31;6184313;23;11514;-72
2022/01/16 05:00:14;;;;;;;;;2.50;2.50;;;;;1.82;78.45;101332.97;6184343;23;11492;-72
2022/01/16 05:03:10;;;;;;;;;2.00;2.00;;;;;1.83;78.17;101337.31;6184346;23;11596;-73
2022/01/16 05:06:06;;;;;;;;;1.00;1.00;;;;;1.81;78.34;101335.94;6184221;23;11506;-72
2022/01/16 05:09:03;;;;;;;;;1.00;1.00;;;;;1.89;78.62;101344.50;6184515;23;11466;-73
2022/01/16 05:12:01;;;;;;;;;1.50;1.50;;;;;1.80;78.67;101348.75;6184662;23;11479;-71
2022/01/16 05:18:11;;;;;;;;;1.00;1.00;;;;;1.82;77.98;101360.22;6184826;23;11470;-71
2022/01/16 05:21:07;;;;;;;;;1.50;1.50;;;;;1.90;77.87;101361.69;6183630;23;11583;-71
2022/01/16 05:24:07;;;;;;;;;1.00;1.00;;;;;1.89;77.87;101363.59;6201086;23;11513;-71
2022/01/16 05:27:05;;;;;;;;;1.00;1.00;;;;;1.92;78.33;101371.28;6182308;23;12267;-72
2022/01/16 05:30:01;;;;;;;;;1.25;1.25;;;;;1.85;77.97;101383.47;6184391;23;11568;-73
2022/01/16 05:32:56;;;;;;;;;1.00;1.00;;;;;1.88;78.23;101381.03;6182250;23;11495;-73
2022/01/16 05:35:52;;;;;;;;;0.50;0.50;;;;;1.97;78.10;101378.66;6184463;23;11473;-72
2022/01/16 05:38:49;;;;;;;;;1.25;1.25;;;;;2.03;77.35;101376.81;6184272;23;11487;-72
2022/01/16 05:41:45;;;;;;;;;1.25;1.25;;;;;1.94;78.27;101360.91;6184244;23;12188;-72
2022/01/16 05:44:41;;;;;;;;;2.00;2.00;;;;;1.93;78.41;101366.63;6184520;23;11485;-73
2022/01/16 05:47:37;;;;;;;;;1.00;1.00;;;;;1.94;78.80;101384.66;6185957;23;11496;-72
2022/01/16 05:50:33;;;;;;;;;1.00;1.00;;;;;1.84;79.05;101379.06;6185625;23;11476;-74
2022/01/16 05:53:28;;;;;;;;;1.75;1.75;;;;;1.92;79.29;101387.66;6184407;23;11514;-74
2022/01/16 05:56:24;;;;;;;;;2.00;2.00;;;;;1.89;79.26;101390.03;6181798;23;11591;-73
2022/01/16 05:59:20;;;;;;;;;1.25;1.25;;;;;1.86;79.23;101390.56;6181482;23;11490;-72
2022/01/16 06:02:16;;;;;;;;;1.00;1.00;;;;;1.91;78.56;101390.59;6184046;23;11556;-72
2022/01/16 06:05:16;;;;;;;;;1.75;1.75;;;;;2.04;78.00;101384.75;6184930;23;11488;-72
2022/01/16 06:08:12;;;;;;;;;0.00;0.00;;;;;1.99;78.67;101398.31;6186427;23;11497;-73
2022/01/16 06:11:08;;;;;;;;;1.75;1.75;;;;;2.02;78.42;101394.28;6186211;23;11498;-73
2022/01/16 06:14:04;;;;;;;;;3.00;3.00;;;;;1.95;78.88;101392.56;6185867;23;11481;-72
2022/01/16 06:17:00;;;;;;;;;1.25;1.25;;;;;1.99;79.03;101384.69;6185671;23;11498;-72
2022/01/16 06:19:56;;;;;;;;;1.75;1.75;;;;;1.92;79.51;101395.81;6185913;23;11501;-72
2022/01/16 06:22:53;;;;;;;;;2.50;2.50;;;;;2.01;79.01;101392.63;6183484;23;11483;-72
2022/01/16 06:25:54;;;;;;;;;2.00;2.00;;;;;2.14;78.86;101390.31;6184814;23;11456;-71
2022/01/16 06:28:49;;;;;;;;;2.00;2.00;;;;;2.02;79.14;101391.56;6184702;23;11544;-72
2022/01/16 06:31:45;;;;;;;;;2.00;2.00;;;;;2.06;78.92;101400.84;6185280;23;11502;-71
2022/01/16 06:34:26;;;;;;;;;2.00;2.00;;;;;2.16;77.85;101412.72;6186972;23;11625;-71
2022/01/16 06:36:54;;;;;;;;;4.00;4.00;;;;;2.30;77.86;101401.38;6194721;23;11528;-72
2022/01/16 06:39:22;;;;;;;;;2.00;1.50;;;;;2.00;77.88;101410.91;6185808;23;11468;-72
2022/01/16 06:41:49;;;;;;;;;1.00;1.00;;;;;2.19;77.98;101416.84;6194469;23;11584;-72
2022/01/16 06:44:34;;;;;;;;;3.00;3.00;;;;;2.17;77.95;101422.56;6186180;23;11487;-71
2022/01/16 06:47:03;;;;;;;;;1.75;1.75;;;;;2.19;77.77;101427.75;6168714;23;11534;-72
2022/01/16 06:49:31;;;;;;;;;1.00;1.00;;;;;2.19;77.51;101435.94;6194948;23;11435;-71
2022/01/16 06:51:58;;;;;;;;;3.50;3.50;;;;;2.29;77.64;101437.94;6194720;23;11525;-72
2022/01/16 06:54:26;;;;;;;;;4.00;4.00;;;;;2.22;77.77;101441.72;6185723;23;11575;-72
2022/01/16 06:56:54;;;;;;;;;14.25;14.25;;;;;2.23;77.66;101445.28;6185208;23;11564;-73
2022/01/16 06:59:50;;;;;;;;;7.00;7.00;;;;;2.25;77.71;101454.03;6186838;23;12256;-72
2022/01/16 07:02:17;;;;;;;;;4.75;4.75;;;;;2.41;77.21;101446.81;6159941;23;11558;-73
2022/01/16 07:04:46;;;;;;;;;4.00;4.00;;;;;2.45;77.07;101462.44;6187853;23;11546;-73
2022/01/16 07:07:43;;;;;;;;;5.00;2.50;;;;;2.38;76.51;101453.63;6188711;23;11470;-73
2022/01/16 07:10:13;;;;;;;;;2.00;2.00;;;;;2.29;77.71;101451.59;6169170;23;11471;-74
2022/01/16 07:12:48;;;;;;;;;4.00;4.00;;;;;2.32;77.63;101451.91;6193442;23;12131;-72
2022/01/16 07:15:36;;;;;;;;;1.00;1.00;;;;;2.33;77.87;101461.75;6185264;23;11472;-71
2022/01/16 07:18:38;;;;;;;;;2.00;2.00;;;;;2.39;77.88;101459.91;6184968;23;12238;-71
2022/01/16 07:21:12;;;;;;;;;3.50;3.50;;;;;2.36;78.38;101455.75;6195333;23;11465;-73
2022/01/16 07:23:48;;;;;;;;;1.75;1.75;;;;;2.31;79.29;101460.38;6188804;23;11501;-73
2022/01/16 07:26:17;;;;;;;;;1.75;1.75;;;;;2.32;78.47;101472.94;6194449;23;11487;-72
2022/01/16 07:28:46;;;;;;;;;1.00;1.00;;;;;2.51;78.05;101474.22;6168561;23;11458;-73
2022/01/16 07:31:13;;;;;;;;;4.00;4.00;;;;;2.36;77.89;101480.34;6194466;23;11423;-73
2022/01/16 07:34:09;;;;;;;;;2.00;2.00;;;;;2.30;78.40;101486.84;6185456;23;11460;-73
2022/01/16 07:36:38;;;;;;;;;3.50;3.50;;;;;2.60;77.96;101485.47;6194106;23;11587;-73
2022/01/16 07:39:06;;;;;;;;;4.25;4.25;;;;;2.61;78.05;101492.63;6194148;23;11445;-73
2022/01/16 07:42:01;;;;;;;;;1.50;1.00;;;;;2.59;78.20;101497.50;6182676;23;11461;-73
2022/01/16 07:44:57;;;;;;;;;1.50;1.00;;;;;2.66;77.35;101503.56;6184113;23;11466;-73
2022/01/16 07:47:52;;;;;;;;;2.00;2.00;;;;;2.55;77.96;101499.94;6183104;23;11472;-73
2022/01/16 07:50:48;;;;;;;;;6.50;4.25;;;;;2.59;77.46;101505.69;6165862;23;11476;-73
2022/01/16 07:53:15;;;;;;;;;1.75;1.75;;;;;2.70;77.13;101507.47;6168428;23;11429;-72
2022/01/16 07:55:43;;;;;;;;;4.00;4.00;;;;;2.63;77.18;101512.28;6193899;23;11451;-73
2022/01/16 07:58:11;;;;;;;;;2.50;2.50;;;;;2.54;77.12;101516.56;6192711;23;11431;-73
2022/01/16 08:00:39;;;;;;;;;2.00;2.00;;;;;2.72;76.85;101514.28;6167969;23;11540;-71
2022/01/16 08:03:07;;;;;;;;;2.00;2.00;;;;;2.68;76.83;101517.78;6159599;23;11501;-74
2022/01/16 08:05:49;;;;;;;;;1.00;1.00;;;;;2.76;77.26;101528.25;6183848;23;11483;-73
2022/01/16 08:08:17;;;;;;;;;2.00;2.00;;;;;2.70;78.07;101540.22;6190656;23;11563;-72
2022/01/16 08:11:13;;;;;;;;;15.50;15.50;;;;;2.83;76.95;101537.06;6183605;23;11501;-73
2022/01/16 08:13:41;;;;;;;;;8.50;7.00;;;;;2.83;76.31;101550.72;6193721;23;11523;-73
2022/01/16 08:16:25;;;;;;;;;0.75;0.75;;;;;2.89;76.67;101541.50;6193597;23;11522;-73
2022/01/16 08:18:57;;;;;;;;;2.50;2.50;;;;;2.88;76.13;101555.44;6193916;23;11567;-74
2022/01/16 08:21:24;;;;;;;;;1.75;1.75;;;;;2.82;75.42;101548.25;6191257;23;11531;-74
2022/01/16 08:23:51;;;;;;;;;1.00;1.00;;;;;2.93;75.68;101548.13;6187910;23;11613;-73
2022/01/16 08:26:19;;;;;;;;;4.00;4.00;;;;;3.04;75.75;101549.84;6193061;23;11452;-72
2022/01/16 08:29:14;;;;;;;;;4.00;4.00;;;;;2.96;75.12;101544.84;6182346;23;11509;-76
2022/01/16 08:31:56;;;;;;;;;1.50;1.00;;;;;2.84;74.69;101540.63;6184213;23;11520;-73
2022/01/16 08:34:46;;;;;;;;;1.00;1.00;;;;;2.96;74.04;101549.50;6184889;23;11473;-76
2022/01/16 08:37:14;;;;;;;;;1.50;1.50;;;;;3.06;73.85;101549.56;6193624;23;11456;-74
2022/01/16 08:39:50;;;;;;;;;1.00;1.00;;;;;3.08;73.86;101552.91;6169718;23;11496;-72
2022/01/16 08:42:18;;;;;;;;;1.00;1.00;;;;;3.20;73.39;101552.72;6193938;23;11463;-72
2022/01/16 08:44:46;;;;;;;;;2.00;2.00;;;;;3.39;72.24;101566.81;6185087;23;11448;-72
2022/01/16 08:47:15;;;;;;;;;1.50;1.50;;;;;3.35;72.75;101566.50;6193257;23;11479;-74
2022/01/16 08:49:43;;;;;;;;;2.50;2.00;;;;;3.36;71.80;101573.63;6193410;23;11448;-72
2022/01/16 08:52:39;;;;;;;;;2.00;2.00;;;;;3.33;71.34;101574.97;6183498;23;11446;-72
2022/01/16 08:55:09;;;;;;;;;2.00;2.00;;;;;3.39;71.46;101578.59;6194077;23;11470;-75
2022/01/16 08:57:37;;;;;;;;;3.00;3.00;;;;;3.34;71.27;101579.34;6193233;23;11612;-73
2022/01/16 09:00:33;;;;;;;;;1.50;1.50;;;;;3.42;71.61;101591.72;6183425;23;11559;-73
2022/01/16 09:03:09;;;;;;;;;2.50;2.50;;;;;3.47;71.20;101586.31;6193678;23;11443;-72
2022/01/16 09:06:05;;;;;;;;;1.00;1.00;;;;;3.43;70.75;101584.34;6183335;23;11541;-72
2022/01/16 09:08:33;;;;;;;;;2.00;1.75;;;;;3.36;70.55;101581.81;6193185;23;11456;-73
2022/01/16 09:11:30;;;;;;;;;3.00;3.00;;;;;3.54;70.48;101564.19;6183578;23;11445;-73
2022/01/16 09:14:28;;;;;;;;;4.75;2.50;;;;;3.30;70.55;101566.47;6183739;23;12150;-73
2022/01/16 09:17:24;;;;;;;;;2.00;2.00;;;;;3.37;70.89;101564.31;6163764;23;11526;-72
2022/01/16 09:20:20;;;;;;;;;2.00;2.00;;;;;3.18;70.65;101569.38;6163581;23;11468;-77
2022/01/16 09:23:15;;;;;;;;;2.00;2.00;;;;;3.24;70.74;101576.53;6183509;23;11542;-75
2022/01/16 09:26:12;;;;;;;;;2.00;2.00;;;;;3.34;70.15;101562.94;6183531;23;11483;-74
2022/01/16 09:29:07;;;;;;;;;2.00;2.00;;;;;3.63;69.41;101557.16;6183159;23;11470;-72
2022/01/16 09:32:05;;;;;;;;;5.25;5.25;;;;;3.48;69.09;101573.44;6183225;23;11447;-72
2022/01/16 09:34:46;;;;;;;;;1.75;1.75;;;;;3.39;69.45;101564.09;6182457;23;12257;-73
2022/01/16 09:37:13;;;;;;;;;0.25;0.25;;;;;3.26;70.05;101568.91;6191994;23;11459;-74
2022/01/16 09:39:52;;;;;;;;;1.75;1.75;;;;;3.32;69.52;101575.25;6192654;23;11529;-73
2022/01/16 09:42:28;;;;;;;;;5.00;5.00;;;;;3.49;69.94;101577.81;6195743;23;11427;-72
2022/01/16 09:45:24;;;;;;;;;2.75;2.50;;;;;3.56;69.68;101573.78;6186535;23;11507;-76
2022/01/16 09:47:52;;;;;;;;;7.00;3.00;;;;;3.70;69.72;101571.44;6195600;23;11457;-75
2022/01/16 09:50:48;;;;;;;;;4.00;4.00;;;;;3.80;69.72;101567.91;6185208;23;12209;-73
2022/01/16 09:53:43;;;;;;;;;1.50;1.50;;;;;3.81;68.22;101569.56;6185316;23;11544;-73
2022/01/16 09:56:39;;;;;;;;;0.00;0.00;;;;;3.94;67.79;101573.75;6182675;23;11471;-72
2022/01/16 09:59:35;;;;;;;;;0.25;0.25;;;;;4.03;67.69;101561.22;6184485;23;11433;-73
2022/01/16 10:02:31;;;;;;;;;1.50;1.50;;;;;4.10;66.70;101553.59;6184932;23;11432;-73
2022/01/16 10:04:59;;;;;;;;;0.75;0.75;;;;;3.77;66.65;101546.56;6194973;23;11508;-74
2022/01/16 10:07:44;;;;;;;;;1.00;1.00;;;;;3.89;66.91;101544.44;6188746;23;11436;-73
2022/01/16 10:10:31;;;;;;;;;1.00;1.00;;;;;3.87;66.97;101549.34;6202071;23;11472;-75
2022/01/16 10:13:41;;;;;;;;;1.50;1.50;;;;;4.08;66.73;101542.91;6185345;23;11503;-73
2022/01/16 10:29:24;;;;;;;;;2.00;1.50;;;;;4.31;65.57;101535.34;6185566;23;11415;-73
2022/01/16 10:32:19;;;;;;;;;1.00;1.00;;;;;3.95;64.21;101545.28;6187308;23;11455;-74
2022/01/16 10:34:53;;;;;;;;;1.00;1.00;;;;;3.85;64.54;101540.59;6163356;23;11497;-74
2022/01/16 10:37:33;;;;;;;;;1.75;1.75;;;;;3.96;65.35;101550.50;6194669;23;11550;-73
2022/01/16 10:40:07;;;;;;;;;4.00;4.00;;;;;4.01;64.61;101552.44;6194380;23;11508;-73
2022/01/16 10:42:58;;;;;;;;;0.25;0.25;;;;;4.32;64.65;101551.50;6185333;23;11468;-74
2022/01/16 10:45:59;;;;;;;;;1.00;1.00;;;;;4.09;64.60;101557.41;6184183;23;11436;-73
2022/01/16 10:49:17;;;;;;;;;1.00;1.00;;;;;3.92;65.61;101567.72;6184535;23;11465;-73
2022/01/16 10:52:13;;;;;;;;;1.25;1.00;;;;;4.17;64.80;101560.47;6186028;23;12047;-71
2022/01/16 10:55:09;;;;;;;;;0.50;0.00;;;;;4.35;64.01;101561.91;6184234;23;11439;-73
2022/01/16 10:57:36;;;;;;;;;1.00;1.00;;;;;4.46;64.19;101560.88;6194095;23;11482;-73
2022/01/16 11:00:32;;;;;;;;;1.75;1.75;;;;;4.46;64.40;101560.88;6183891;23;11506;-73
2022/01/16 11:03:04;;;;;;;;;2.00;2.00;;;;;4.41;64.24;101549.06;6168771;23;11448;-74
2022/01/16 11:06:02;;;;;;;;;1.50;1.50;;;;;4.40;64.67;101541.94;6183660;23;11570;-74
2022/01/16 11:08:58;;;;;;;;;1.00;1.00;;;;;4.39;64.49;101556.72;6184491;23;11495;-73
2022/01/16 11:12:01;;;;;;;;;1.00;1.00;;;;;4.19;66.19;101555.53;6165031;23;11450;-75
2022/01/16 11:14:57;;;;;;;;;1.00;1.00;;;;;4.05;68.56;101550.81;6184440;23;11489;-76
2022/01/16 11:17:29;;;;;;;;;1.00;1.00;;;;;4.04;68.20;101550.00;6194458;23;11430;-74
2022/01/16 11:20:29;;;;;;;;;1.75;1.75;;;;;4.21;68.41;101549.78;6184240;23;11476;-73
2022/01/16 11:22:59;;;;;;;;;1.00;1.00;;;;;4.51;67.75;101540.84;6194055;23;11448;-75
2022/01/16 11:25:57;;;;;;;;;4.50;4.50;;;;;4.87;66.97;101552.75;6184361;23;11618;-75
2022/01/16 11:28:54;;;;;;;;;1.00;1.00;;;;;4.60;66.58;101552.13;6184091;23;11491;-75
2022/01/16 11:31:23;;;;;;;;;2.00;2.00;;;;;4.65;67.37;101549.41;6194482;23;11458;-76
2022/01/16 11:34:19;;;;;;;;;5.50;5.50;;;;;4.51;67.06;101551.81;6184390;23;11475;-75
2022/01/16 11:37:15;;;;;;;;;2.00;2.00;;;;;4.32;67.12;101556.97;6185039;23;11475;-75
2022/01/16 11:40:21;;;;;;;;;1.00;1.00;;;;;4.17;67.29;101557.72;6183875;23;11460;-75
2022/01/16 11:43:11;;;;;;;;;3.00;3.00;;;;;4.22;67.78;101556.09;6182721;23;11597;-71
2022/01/16 11:46:13;;;;;;;;;1.00;1.00;;;;;3.86;66.90;101544.97;6182579;23;11570;-76
2022/01/16 11:49:14;;;;;;;;;1.50;1.50;;;;;4.04;66.87;101549.16;6185244;23;11490;-78
2022/01/16 11:52:11;;;;;;;;;1.00;1.00;;;;;4.22;65.85;101548.72;6183214;23;11489;-78
2022/01/16 11:55:08;;;;;;;;;0.00;0.00;;;;;4.65;66.40;101550.22;6182637;23;11483;-77
2022/01/16 11:57:36;;;;;;;;;1.00;1.00;;;;;4.66;64.74;101554.59;6158308;23;11474;-78
2022/01/16 12:00:14;;;;;;;;;0.25;0.25;;;;;4.74;64.77;101554.06;6184407;23;11486;-78
2022/01/16 12:02:45;;;;;;;;;1.00;1.00;;;;;4.93;64.96;101542.59;6192524;23;11407;-77
2022/01/16 12:05:21;;;;;;;;;1.25;1.25;;;;;5.16;64.20;101553.03;6193251;23;11381;-74
2022/01/16 12:08:20;;;;;;;;;1.75;1.25;;;;;5.15;63.61;101558.81;6184066;23;12148;-75
2022/01/16 12:11:35;;;;;;;;;4.00;4.00;;;;;5.07;62.78;101559.34;6163732;23;11382;-77
2022/01/16 12:14:06;;;;;;;;;2.00;2.00;;;;;5.17;62.26;101568.41;6168156;23;11459;-77
2022/01/16 12:16:43;;;;;;;;;1.25;1.25;;;;;5.07;62.16;101562.09;6183932;23;11451;-77
2022/01/16 12:19:41;;;;;;;;;3.25;3.25;;;;;5.24;62.06;101563.47;6184618;23;11417;-77
2022/01/16 12:22:13;;;;;;;;;3.50;2.75;;;;;5.49;60.59;101567.31;6159139;23;11384;-76
2022/01/16 12:24:57;;;;;;;;;2.00;2.00;;;;;5.52;61.11;101561.25;6185732;23;11496;-77
2022/01/16 12:27:26;;;;;;;;;2.00;2.00;;;;;5.72;60.78;101572.22;6186599;23;11512;-75
2022/01/16 12:30:13;;;;;;;;;2.00;2.00;;;;;5.84;59.93;101567.25;6194372;23;11399;-77
2022/01/16 12:32:58;;;;;;;;;4.00;4.00;;;;;5.65;60.51;101568.09;6168314;23;11390;-76
2022/01/16 12:35:41;;;;;;;;;5.00;5.00;;;;;5.60;60.95;101568.94;6185081;23;11501;-76
2022/01/16 12:38:27;;;;;;;;;2.25;2.25;;;;;5.59;61.25;101570.03;6193697;23;11405;-77
2022/01/16 12:41:37;;;;;;;;;2.50;2.50;;;;;5.49;62.22;101575.53;6167494;23;11470;-76
2022/01/16 12:44:08;;;;;;;;;3.25;2.75;;;;;5.54;61.08;101570.06;6183697;23;11411;-76
2022/01/16 12:46:40;;;;;;;;;3.50;3.50;;;;;5.15;61.69;101578.00;6194019;23;11370;-77
2022/01/16 12:49:15;;;;;;;;;1.75;1.75;;;;;4.90;63.52;101587.00;6167831;23;11446;-77
2022/01/16 12:52:11;;;;;;;;;4.25;4.25;;;;;4.64;64.29;101597.06;6183662;23;11393;-75
2022/01/16 12:55:07;;;;;;;;;2.00;2.00;;;;;4.36;63.85;101610.09;6183673;23;11465;-78
2022/01/16 12:58:20;;;;;;;;;2.00;2.00;;;;;3.97;63.48;101615.09;6184687;23;11487;-77
2022/01/16 13:01:16;;;;;;;;;4.50;4.50;;;;;4.01;64.13;101613.50;6183568;23;11568;-73
2022/01/16 13:04:38;;;;;;;;;5.00;5.00;;;;;3.96;64.76;101609.88;6183702;23;11500;-73
2022/01/16 13:07:34;;;;;;;;;7.00;7.00;;;;;4.11;64.79;101626.41;6183563;23;11471;-72
2022/01/16 13:10:30;;;;;;;;;3.25;2.00;;;;;3.90;65.18;101618.06;6182832;23;11474;-71
2022/01/16 13:13:32;;;;;;;;;2.50;2.50;;;;;3.97;65.72;101615.09;6182262;23;11433;-71
2022/01/16 13:16:31;;;;;;;;;2.00;2.00;;;;;4.02;64.95;101620.63;6183942;23;11529;-72
2022/01/16 13:19:30;;;;;;;;;4.25;4.25;;;;;3.92;66.13;101625.22;6184165;23;11437;-73
2022/01/16 13:22:30;;;;;;;;;5.00;5.00;;;;;3.98;66.72;101615.91;6184076;23;11471;-73
2022/01/16 13:25:25;;;;;;;;;5.00;5.00;;;;;4.03;66.70;101626.91;6184076;23;11432;-72
2022/01/16 13:28:28;;;;;;;;;4.50;4.50;;;;;4.00;67.27;101621.97;6184065;23;11497;-72
2022/01/16 13:31:25;;;;;;;;;5.00;5.00;;;;;3.86;66.59;101629.81;6183974;23;11459;-72
2022/01/16 13:34:57;;;;;;;;;9.25;9.25;;;;;3.69;67.35;101640.09;6183825;23;11553;-72
2022/01/16 13:38:11;;;;;;;;;15.00;14.00;;;;;3.79;67.73;101631.94;6065249;23;12427;-73
2022/01/16 13:41:14;;;;;;;;;8.00;5.50;;;;;3.84;68.70;101632.00;6184959;23;11481;-73
2022/01/16 13:44:26;;;;;;;;;13.00;13.00;;;;;3.86;68.41;101638.84;6184873;23;11491;-72
2022/01/16 13:47:22;;;;;;;;;26.50;24.25;;;;;3.92;67.67;101634.25;6183612;23;11498;-72
2022/01/16 13:50:18;;;;;;;;;11.50;9.75;;;;;3.93;67.31;101638.63;6183812;23;11493;-72
2022/01/16 13:53:16;;;;;;;;;13.50;12.25;;;;;3.90;66.40;101625.44;6184131;23;11498;-72
2022/01/16 13:56:24;;;;;;;;;5.25;5.25;;;;;3.68;67.08;101625.59;6183619;23;11525;-72
2022/01/16 13:59:20;;;;;;;;;5.50;5.50;;;;;3.78;67.66;101633.88;6164165;23;11555;-74
2022/01/16 14:02:21;;;;;;;;;8.25;5.75;;;;;3.68;68.02;101636.53;6183745;23;11451;-73
2022/01/16 14:05:24;;;;;;;;;7.50;7.50;;;;;3.57;68.34;101632.88;6164240;23;11537;-72
2022/01/16 14:08:29;;;;;;;;;6.50;6.50;;;;;3.48;69.24;101631.72;6183672;23;11457;-73
2022/01/16 14:11:27;;;;;;;;;7.50;7.50;;;;;3.38;68.88;101623.44;6183836;23;11446;-74
2022/01/16 14:13:58;;;;;;;;;9.50;9.50;;;;;3.38;69.16;101628.06;6185198;23;11450;-72